createdAt,value
2018-11-28T00:00:07.788Z,23.07
2018-11-28T00:05:14.481Z,23.27
2018-11-28T00:07:41.910Z,23.90
2018-11-28T00:10:10.412Z,22.40
2018-11-28T00:12:38.261Z,19.97
2018-11-28T00:15:06.006Z,22.43
2018-11-28T00:17:34.740Z,24.47
2018-11-28T00:20:02.211Z,23.37
2018-11-28T00:22:29.634Z,24.50
2018-11-28T00:24:56.972Z,23.33
2018-11-28T00:27:24.410Z,23.73
2018-11-28T00:29:51.750Z,22.93
2018-11-28T00:32:19.118Z,23.30
2018-11-28T00:34:46.508Z,22.87
2018-11-28T00:37:13.842Z,23.73
2018-11-28T00:39:41.172Z,24.13
2018-11-28T00:42:08.922Z,22.73
2018-11-28T00:44:36.234Z,24.30
2018-11-28T00:47:03.608Z,24.53
2018-11-28T00:49:30.976Z,22.70
2018-11-28T00:51:58.353Z,22.20
2018-11-28T00:54:25.660Z,24.57
2018-11-28T00:56:53.006Z,23.10
2018-11-28T00:59:20.576Z,20.67
2018-11-28T01:01:47.898Z,20.70
2018-11-28T01:04:15.250Z,22.10
2018-11-28T01:06:42.616Z,23.40
2018-11-28T01:09:09.933Z,21.17
2018-11-28T01:11:37.280Z,22.27
2018-11-28T01:14:04.821Z,22.73
2018-11-28T01:16:32.134Z,22.87
2018-11-28T01:18:59.518Z,20.47
2018-11-28T01:21:26.859Z,22.80
2018-11-28T01:23:54.183Z,22.30
2018-11-28T01:26:21.973Z,22.20
2018-11-28T01:28:49.364Z,22.70
2018-11-28T01:31:16.882Z,22.00
2018-11-28T01:33:44.235Z,22.23
2018-11-28T01:36:11.589Z,23.17
2018-11-28T01:38:38.999Z,23.70
2018-11-28T01:41:06.389Z,22.43
2018-11-28T01:43:33.731Z,23.37
2018-11-28T01:46:01.162Z,22.73
2018-11-28T01:48:28.495Z,23.03
2018-11-28T01:50:56.365Z,22.50
2018-11-28T01:53:23.770Z,21.43
2018-11-28T01:55:51.164Z,21.73
2018-11-28T01:58:18.738Z,20.80
2018-11-28T02:00:46.122Z,21.57
2018-11-28T02:03:13.509Z,20.53
2018-11-28T02:05:40.904Z,21.13
2018-11-28T02:08:08.274Z,21.20
2018-11-28T02:10:35.624Z,21.53
2018-11-28T02:13:02.982Z,21.10
2018-11-28T02:15:30.706Z,20.67
2018-11-28T02:17:58.091Z,19.93
2018-11-28T02:20:25.437Z,21.70
2018-11-28T02:22:52.815Z,18.83
2018-11-28T02:25:20.173Z,20.73
2018-11-28T02:27:47.509Z,18.73
2018-11-28T02:30:15.237Z,19.97
2018-11-28T02:32:42.901Z,20.93
2018-11-28T02:35:10.792Z,18.80
2018-11-28T02:37:38.256Z,19.43
2018-11-28T02:40:09.804Z,20.10
2018-11-28T02:42:37.189Z,21.10
2018-11-28T02:45:06.367Z,21.27
2018-11-28T02:47:33.776Z,21.50
2018-11-28T02:50:01.283Z,20.07
2018-11-28T02:52:28.701Z,18.80
2018-11-28T02:54:56.436Z,18.70
2018-11-28T02:57:23.885Z,18.53
2018-11-28T02:59:51.204Z,19.53
2018-11-28T03:02:18.584Z,18.90
2018-11-28T03:04:45.970Z,20.33
2018-11-28T03:07:13.323Z,19.93
2018-11-28T03:09:40.846Z,19.67
2018-11-28T03:12:08.254Z,21.27
2018-11-28T03:14:35.647Z,21.00
2018-11-28T03:17:03.090Z,20.10
2018-11-28T03:19:30.503Z,21.27
2018-11-28T03:21:57.976Z,21.37
2018-11-28T03:24:25.475Z,20.57
2018-11-28T03:26:52.851Z,21.77
2018-11-28T03:29:20.252Z,20.93
2018-11-28T03:31:47.687Z,20.87
2018-11-28T03:34:15.104Z,22.13
2018-11-28T03:36:42.529Z,20.90
2018-11-28T03:39:09.880Z,21.67
2018-11-28T03:41:37.252Z,21.77
2018-11-28T03:44:05.146Z,20.07
2018-11-28T03:46:33.142Z,22.60
2018-11-28T03:49:00.626Z,21.00
2018-11-28T03:51:28.091Z,21.27
2018-11-28T03:53:55.469Z,21.53
2018-11-28T03:56:22.857Z,21.90
2018-11-28T03:58:50.226Z,19.87
2018-11-28T04:01:17.674Z,17.63
2018-11-28T04:03:45.070Z,18.37
2018-11-28T04:06:12.490Z,18.90
2018-11-28T04:08:39.852Z,18.30
2018-11-28T04:11:07.358Z,20.60
2018-11-28T04:13:34.891Z,18.13
2018-11-28T04:16:02.327Z,19.93
2018-11-28T04:18:29.780Z,18.67
2018-11-28T04:20:57.510Z,19.17
2018-11-28T04:23:25.002Z,19.27
2018-11-28T04:25:52.537Z,17.50
2018-11-28T04:28:20.056Z,16.77
2018-11-28T04:30:47.476Z,17.60
2018-11-28T04:33:14.867Z,16.70
2018-11-28T04:35:42.246Z,17.20
2018-11-28T04:38:09.610Z,16.70
2018-11-28T04:40:37.209Z,16.10
2018-11-28T04:43:04.756Z,15.63
2018-11-28T04:45:32.182Z,16.40
2018-11-28T04:47:59.604Z,15.87
2018-11-28T04:50:27.015Z,17.57
2018-11-28T04:52:54.422Z,15.37
2018-11-28T04:55:21.982Z,16.23
2018-11-28T04:57:49.517Z,14.80
2018-11-28T05:00:23.708Z,15.07
2018-11-28T05:03:01.955Z,14.70
2018-11-28T05:05:29.614Z,15.17
2018-11-28T05:07:57.355Z,15.00
2018-11-28T05:39:22.662Z,19.47
2018-11-28T05:41:50.331Z,18.67
2018-11-28T05:44:22.514Z,19.03
2018-11-28T05:46:49.941Z,21.40
2018-11-28T05:49:17.420Z,20.30
2018-11-28T05:51:44.850Z,21.30
2018-11-28T05:54:12.416Z,21.63
2018-11-28T05:56:42.488Z,20.60
2018-11-28T05:59:09.966Z,21.40
2018-11-28T06:01:37.936Z,19.60
2018-11-28T07:43:06.087Z,17.07
2018-11-28T07:45:33.465Z,18.30
2018-11-28T07:48:00.934Z,17.17
2018-11-28T07:50:29.787Z,17.30
2018-11-28T07:52:57.235Z,18.03
2018-11-28T07:55:24.653Z,18.20
2018-11-28T07:57:52.262Z,19.40
2018-11-28T08:00:19.704Z,18.90
2018-11-28T08:02:47.231Z,19.83
2018-11-28T08:05:14.618Z,20.57
2018-11-28T08:07:42.129Z,18.90
2018-11-28T08:10:10.346Z,19.90
2018-11-28T08:12:37.716Z,15.40
2018-11-28T08:15:06.216Z,14.63
2018-11-28T08:17:33.581Z,16.40
2018-11-28T08:20:00.903Z,14.93
2018-11-28T08:22:28.310Z,13.77
2018-11-28T08:24:55.665Z,13.47
2018-11-28T08:27:23.178Z,14.10
2018-11-28T08:29:50.732Z,13.37
2018-11-28T08:32:18.108Z,13.37
2018-11-28T08:34:45.448Z,12.23
2018-11-28T08:37:12.945Z,13.87
2018-11-28T08:39:40.352Z,13.20
2018-11-28T08:42:07.815Z,13.57
2018-11-28T08:44:35.207Z,12.43
2018-11-28T08:47:02.695Z,11.40
2018-11-28T08:49:30.477Z,11.93
2018-11-28T08:51:57.902Z,13.17
2018-11-28T08:54:25.250Z,14.33
2018-11-28T08:56:52.730Z,11.43
2018-11-28T08:59:20.078Z,11.20
2018-11-28T09:01:47.366Z,11.63
2018-11-28T09:04:14.884Z,11.97
2018-11-28T09:06:42.645Z,10.80
2018-11-28T09:09:10.055Z,11.50
2018-11-28T09:11:37.376Z,11.17
2018-11-28T09:14:04.775Z,11.60
2018-11-28T09:16:32.072Z,11.40
2018-11-28T09:18:59.388Z,10.80
2018-11-28T09:21:26.720Z,11.57
2018-11-28T09:23:54.054Z,11.23
2018-11-28T09:26:21.439Z,11.90
2018-11-28T09:28:48.859Z,14.53
2018-11-28T09:31:16.245Z,13.80
2018-11-28T09:33:43.767Z,15.17
2018-11-28T09:36:11.174Z,16.20
2018-11-28T09:38:38.583Z,15.93
2018-11-28T09:41:06.038Z,14.87
2018-11-28T09:43:33.458Z,14.13
2018-11-28T09:46:00.881Z,15.60
2018-11-28T09:48:28.359Z,14.73
2018-11-28T09:50:55.780Z,16.50
2018-11-28T09:53:23.072Z,14.30
2018-11-28T09:55:50.411Z,15.50
2018-11-28T09:58:17.859Z,14.90
2018-11-28T10:00:45.192Z,13.90
2018-11-28T10:03:12.576Z,13.57
2018-11-28T10:05:39.976Z,14.10
2018-11-28T10:08:07.368Z,12.00
2018-11-28T10:10:34.724Z,13.17
2018-11-28T10:13:02.056Z,14.47
2018-11-28T10:15:35.221Z,12.50
2018-11-28T10:17:57.235Z,14.07
2018-11-28T10:20:24.625Z,11.50
2018-11-28T10:22:52.414Z,12.30
2018-11-28T10:25:21.081Z,10.60
2018-11-28T10:27:49.708Z,10.73
2018-11-28T10:30:18.401Z,11.33
2018-11-28T10:32:45.841Z,10.07
2018-11-28T10:35:13.297Z,9.90
2018-11-28T10:37:40.653Z,10.03
2018-11-28T10:40:12.075Z,10.10
2018-11-28T10:42:39.394Z,10.13
2018-11-28T10:45:08.290Z,9.53
2018-11-28T10:47:35.663Z,9.77
2018-11-28T10:50:03.051Z,9.93
2018-11-28T10:52:30.423Z,10.23
2018-11-28T10:54:57.812Z,10.23
2018-11-28T10:57:25.221Z,10.93
2018-11-28T10:59:52.583Z,11.60
2018-11-28T11:02:25.333Z,11.57
2018-11-28T11:04:58.030Z,13.00
2018-11-28T11:07:30.660Z,12.40
2018-11-28T11:10:03.243Z,11.23
2018-11-28T11:12:36.083Z,11.43
2018-11-28T11:15:03.705Z,11.50
2018-11-28T11:17:31.133Z,11.07
2018-11-28T11:19:58.600Z,11.77
2018-11-28T11:22:26.047Z,10.40
2018-11-28T11:24:53.484Z,11.97
2018-11-28T11:27:20.820Z,11.60
2018-11-28T11:29:48.250Z,12.00
2018-11-28T11:32:15.666Z,13.07
2018-11-28T11:34:43.035Z,12.57
2018-11-28T11:37:10.352Z,14.23
2018-11-28T11:39:37.748Z,12.10
2018-11-28T11:42:06.006Z,14.50
2018-11-28T11:44:33.461Z,14.93
2018-11-28T11:47:00.897Z,13.03
2018-11-28T11:49:28.607Z,15.13
2018-11-28T11:51:55.994Z,15.33
2018-11-28T11:54:23.428Z,14.03
2018-11-28T11:56:50.813Z,14.67
2018-11-28T11:59:18.159Z,15.10
2018-11-28T12:01:45.594Z,15.17
2018-11-28T12:04:12.913Z,15.00
2018-11-28T12:06:40.254Z,14.47
2018-11-28T12:09:08.658Z,15.60
2018-11-28T12:11:36.302Z,15.30
2018-11-28T12:14:03.762Z,14.53
2018-11-28T12:16:31.154Z,13.60
2018-11-28T12:18:58.969Z,15.17
2018-11-28T12:21:26.290Z,15.37
2018-11-28T12:23:53.636Z,14.03
2018-11-28T12:26:21.079Z,13.77
2018-11-28T12:28:48.452Z,14.60
2018-11-28T12:31:15.781Z,13.70
2018-11-28T12:33:43.226Z,15.17
2018-11-28T12:36:10.750Z,14.83
2018-11-28T12:38:38.079Z,14.20
2018-11-28T12:41:06.439Z,15.47
2018-11-28T12:43:33.896Z,13.40
2018-11-28T12:46:01.775Z,13.90
2018-11-28T12:48:29.204Z,13.43
2018-11-28T12:50:56.591Z,12.90
2018-11-28T12:53:24.237Z,14.10
2018-11-28T12:55:51.558Z,15.40
2018-11-28T12:58:19.513Z,16.20
2018-11-28T13:00:47.335Z,15.03
2018-11-28T13:03:15.242Z,15.90
2018-11-28T13:05:42.691Z,15.40
2018-11-28T13:08:10.036Z,15.13
2018-11-28T13:10:38.084Z,15.83
2018-11-28T13:13:07.085Z,15.00
2018-11-28T13:15:34.726Z,14.90
2018-11-28T13:18:02.226Z,15.63
2018-11-28T13:20:29.605Z,14.17
2018-11-28T13:22:57.043Z,16.87
2018-11-28T13:25:24.920Z,15.13
2018-11-28T13:27:52.290Z,15.03
2018-11-28T13:30:20.894Z,15.20
2018-11-28T13:32:48.707Z,14.07
2018-11-28T13:35:19.453Z,15.03
2018-11-28T13:37:47.387Z,15.07
2018-11-28T13:40:15.291Z,15.33
2018-11-28T13:42:42.748Z,16.67
2018-11-28T13:45:10.979Z,17.13
2018-11-28T13:47:38.385Z,16.10
2018-11-28T13:50:06.487Z,17.17
2018-11-28T13:52:33.791Z,16.10
2018-11-28T13:57:28.616Z,16.60
2018-11-28T13:59:55.931Z,16.33
2018-11-28T14:02:23.310Z,16.50
2018-11-28T14:04:50.668Z,16.60
2018-11-28T14:07:18.190Z,16.37
2018-11-28T14:09:45.579Z,15.33
2018-11-28T14:12:12.921Z,15.10
2018-11-28T14:14:40.550Z,15.70
2018-11-28T14:17:07.789Z,18.40
2018-11-28T14:19:35.185Z,15.87
2018-11-28T14:22:02.509Z,16.83
2018-11-28T14:24:29.810Z,15.57
2018-11-28T14:26:57.185Z,16.27
2018-11-28T14:29:24.524Z,16.93
2018-11-28T14:31:51.863Z,16.40
2018-11-28T14:34:19.317Z,16.40
2018-11-28T14:36:46.686Z,15.37
2018-11-28T14:39:14.043Z,15.60
2018-11-28T14:41:41.363Z,16.30
2018-11-28T14:44:08.750Z,16.20
2018-11-28T14:46:36.072Z,17.30
2018-11-28T14:49:03.428Z,16.30
2018-11-28T14:51:30.825Z,16.23
2018-11-28T14:53:58.589Z,16.23
2018-11-28T14:56:25.914Z,17.83
2018-11-28T14:58:53.205Z,17.43
2018-11-28T15:01:20.576Z,17.53
2018-11-28T15:03:47.988Z,16.13
2018-11-28T15:06:21.328Z,16.40
2018-11-28T15:08:49.002Z,18.33
2018-11-28T15:11:16.407Z,18.63
2018-11-28T15:13:43.941Z,17.83
2018-11-28T15:16:11.327Z,17.23
2018-11-28T15:18:38.799Z,16.73
2018-11-28T15:21:06.747Z,18.20
2018-11-28T15:23:34.088Z,19.07
2018-11-28T15:26:01.450Z,18.40
2018-11-28T15:28:28.859Z,17.17
2018-11-28T15:30:56.243Z,17.30
2018-11-28T15:33:23.604Z,17.20
2018-11-28T15:35:51.102Z,17.07
2018-11-28T15:38:18.501Z,18.10
2018-11-28T15:40:45.853Z,18.03
2018-11-28T15:43:13.236Z,18.60
2018-11-28T15:45:41.018Z,18.40
2018-11-28T15:48:08.631Z,19.13
2018-11-28T15:50:37.608Z,18.00
2018-11-28T15:53:05.214Z,17.30
2018-11-28T15:55:32.561Z,18.80
2018-11-28T15:57:59.901Z,16.60
2018-11-28T16:00:27.297Z,17.30
2018-11-28T16:02:54.804Z,19.50
2018-11-28T16:05:22.264Z,18.93
2018-11-28T16:07:49.840Z,17.70
2018-11-28T16:10:36.987Z,20.03
2018-11-28T16:13:04.643Z,18.57
2018-11-28T16:15:33.187Z,20.83
2018-11-28T16:18:00.497Z,18.80
2018-11-28T16:20:28.070Z,18.80
2018-11-28T16:23:04.408Z,17.43
2018-11-28T16:25:22.981Z,18.60
2018-11-28T16:27:50.357Z,18.83
2018-11-28T16:30:17.787Z,19.93
2018-11-28T16:32:45.579Z,18.20
2018-11-28T16:35:14.367Z,19.33
2018-11-28T16:37:41.728Z,19.60
2018-11-28T16:40:10.254Z,20.40
2018-11-28T16:42:37.590Z,20.33
2018-11-28T16:45:06.947Z,20.00
2018-11-28T16:47:34.309Z,20.23
2018-11-28T16:50:02.527Z,21.20
2018-11-28T16:52:30.717Z,19.07
2018-11-28T16:54:58.082Z,19.53
2018-11-28T16:57:25.947Z,20.90
2018-11-28T16:59:53.399Z,19.43
2018-11-28T17:02:20.748Z,19.53
2018-11-28T17:04:48.880Z,20.80
2018-11-28T17:07:15.537Z,19.27
2018-11-28T17:09:42.882Z,19.90
2018-11-28T17:12:10.202Z,21.23
2018-11-28T17:14:38.342Z,23.27
2018-11-28T17:17:06.206Z,20.97
2018-11-28T17:19:33.676Z,21.13
2018-11-28T17:22:01.058Z,22.70
2018-11-28T17:24:28.402Z,21.60
2018-11-28T17:26:55.787Z,22.33
2018-11-28T17:29:23.177Z,21.20
2018-11-28T17:31:50.524Z,19.70
2018-11-28T17:34:17.969Z,21.77
2018-11-28T17:36:45.306Z,20.97
2018-11-28T17:39:13.651Z,20.53
2018-11-28T17:41:41.125Z,20.60
2018-11-28T17:44:08.494Z,19.50
2018-11-28T17:46:36.408Z,19.30
2018-11-28T17:49:03.787Z,22.47
2018-11-28T17:51:31.148Z,21.50
2018-11-28T17:53:58.483Z,19.70
2018-11-28T17:56:25.837Z,19.40
2018-11-28T17:58:53.291Z,17.03
2018-11-28T18:01:20.645Z,18.40
2018-11-28T18:03:48.057Z,17.50
2018-11-28T18:06:15.585Z,16.80
2018-11-28T18:08:43.051Z,19.03
2018-11-28T18:11:11.423Z,18.60
2018-11-28T18:13:39.624Z,18.83
2018-11-28T18:16:06.447Z,19.30
2018-11-28T18:18:34.098Z,19.30
2018-11-28T18:21:01.551Z,21.97
2018-11-28T18:23:29.005Z,19.43
2018-11-28T18:25:56.459Z,19.30
2018-11-28T18:28:23.986Z,19.00
2018-11-28T18:30:51.384Z,17.40
2018-11-28T18:33:18.747Z,18.23
2018-11-28T18:35:46.063Z,18.53
2018-11-28T18:38:13.520Z,18.93
2018-11-28T18:40:40.999Z,19.70
2018-11-28T18:43:08.733Z,19.60
2018-11-28T18:45:37.304Z,19.73
2018-11-28T18:48:04.838Z,18.00
2018-11-28T18:50:32.194Z,19.50
2018-11-28T18:52:59.684Z,17.27
2018-11-28T18:55:27.048Z,18.20
2018-11-28T18:57:55.178Z,18.10
2018-11-28T19:00:23.383Z,18.80
2018-11-28T19:02:51.356Z,18.20
2018-11-28T19:05:20.178Z,17.70
2018-11-28T19:07:47.595Z,17.50
2018-11-28T19:10:15.577Z,18.60
2018-11-28T19:12:42.874Z,18.33
2018-11-28T19:15:10.930Z,18.10
2018-11-28T19:17:38.361Z,19.60
2018-11-28T19:20:07.666Z,19.67
2018-11-28T19:22:35.106Z,19.30
2018-11-28T19:25:03.048Z,20.00
2018-11-28T19:27:30.583Z,19.20
2018-11-28T19:29:57.973Z,19.47
2018-11-28T19:32:25.584Z,18.53
2018-11-28T19:34:53.023Z,20.37
2018-11-28T19:37:20.448Z,20.10
2018-11-28T19:39:47.828Z,19.20
2018-11-28T19:42:15.414Z,20.33
2018-11-28T19:44:42.990Z,20.97
2018-11-28T19:47:10.523Z,20.13
2018-11-28T19:49:38.160Z,20.30
2018-11-28T19:52:05.651Z,19.37
2018-11-28T19:54:33.308Z,19.57
2018-11-28T19:57:00.927Z,21.80
2018-11-28T19:59:28.298Z,20.43
2018-11-28T20:01:55.667Z,21.33
2018-11-28T20:04:23.287Z,20.77
2018-11-28T20:06:50.669Z,20.47
2018-11-28T20:09:21.860Z,20.10
2018-11-28T20:14:17.807Z,23.03
2018-11-28T20:16:45.226Z,20.63
2018-11-28T20:19:17.495Z,20.60
2018-11-28T20:21:40.222Z,20.77
2018-11-28T20:24:07.876Z,21.47
2018-11-28T20:26:35.319Z,19.87
2018-11-28T20:29:02.740Z,23.23
2018-11-28T20:31:30.120Z,21.40
2018-11-28T20:33:57.466Z,22.20
2018-11-28T20:36:24.881Z,21.33
2018-11-28T20:38:52.338Z,23.10
2018-11-28T20:41:19.832Z,21.97
2018-11-28T20:43:47.268Z,21.40
2018-11-28T20:46:14.705Z,21.10
2018-11-28T20:48:42.213Z,21.47
2018-11-28T20:51:09.616Z,22.43
2018-11-28T20:53:36.949Z,20.03
2018-11-28T20:56:04.396Z,20.30
2018-11-28T20:58:31.785Z,21.10
2018-11-28T21:00:59.137Z,20.53
2018-11-28T21:03:26.562Z,20.87
2018-11-28T21:05:54.034Z,18.13
2018-11-28T21:08:21.458Z,19.00
2018-11-28T21:10:48.894Z,17.43
2018-11-28T21:13:16.222Z,20.00
2018-11-28T21:15:44.680Z,18.37
2018-11-28T21:18:12.151Z,19.40
2018-11-28T21:20:40.365Z,18.70
2018-11-28T21:23:08.652Z,18.57
2018-11-28T21:25:36.264Z,19.77
2018-11-28T21:28:03.740Z,18.40
2018-11-28T21:30:31.120Z,18.47
2018-11-28T21:32:58.578Z,17.67
2018-11-28T21:35:27.916Z,16.77
2018-11-28T21:37:55.271Z,18.03
2018-11-28T21:40:22.701Z,18.83
2018-11-28T21:42:50.102Z,19.07
2018-11-28T21:45:18.061Z,18.17
2018-11-28T21:47:45.502Z,17.63
2018-11-28T21:50:14.463Z,20.03
2018-11-28T21:52:41.811Z,18.70
2018-11-28T21:55:09.860Z,18.37
2018-11-28T21:57:37.209Z,18.93
2018-11-28T22:00:06.524Z,18.40
2018-11-28T22:02:33.897Z,18.60
2018-11-28T22:05:01.427Z,18.10
2018-11-28T22:07:30.013Z,18.50
2018-11-28T22:09:57.484Z,18.93
2018-11-28T22:12:26.399Z,20.07
2018-11-28T22:14:56.461Z,18.50
2018-11-28T22:17:23.833Z,18.77
2018-11-28T22:19:51.186Z,21.60
2018-11-28T22:22:19.514Z,19.47
2018-11-28T22:24:46.931Z,18.03
2018-11-28T22:27:14.367Z,18.73
2018-11-28T22:29:41.762Z,16.93
2018-11-28T22:32:09.732Z,18.07
2018-11-28T22:34:37.163Z,18.23
2018-11-28T22:37:04.543Z,18.47
2018-11-28T22:39:31.824Z,17.37
2018-11-28T22:41:59.436Z,17.53
2018-11-28T22:44:26.830Z,17.57
2018-11-28T22:46:54.769Z,17.03
2018-11-28T22:49:22.100Z,17.20
2018-11-28T22:51:50.241Z,17.03
2018-11-28T22:54:17.660Z,17.07
2018-11-28T22:56:45.049Z,16.77
2018-11-28T22:59:12.385Z,18.20
2018-11-28T23:01:45.351Z,19.60
2018-11-28T23:04:14.664Z,18.37
2018-11-28T23:06:42.084Z,17.83
2018-11-28T23:09:09.548Z,17.60
2018-11-28T23:11:37.162Z,17.93
2018-11-28T23:14:04.487Z,17.27
2018-11-28T23:16:31.880Z,17.10
2018-11-28T23:18:59.221Z,17.87
2018-11-28T23:21:26.596Z,17.20
2018-11-28T23:23:54.202Z,16.43
2018-11-28T23:26:21.554Z,17.73
2018-11-28T23:28:48.888Z,16.80
2018-11-28T23:31:16.266Z,17.77
2018-11-28T23:33:43.996Z,30.37
2018-11-28T23:36:11.324Z,17.27
2018-11-28T23:38:38.656Z,16.57
2018-11-28T23:41:05.996Z,16.80
2018-11-28T23:43:33.386Z,17.00
2018-11-28T23:46:00.783Z,17.63
2018-11-28T23:48:28.125Z,17.60
2018-11-28T23:50:55.477Z,17.10
2018-11-28T23:53:22.926Z,18.30
2018-11-28T23:55:50.341Z,16.30
2018-11-28T23:58:17.711Z,16.90
